createdAt,value
2019-04-06T00:00:11.255Z,100408.64
2019-04-06T00:02:42.712Z,100399.50
2019-04-06T00:05:13.336Z,100404.19
2019-04-06T00:07:43.159Z,100406.95
2019-04-06T00:10:13.593Z,100410.23
2019-04-06T00:12:43.508Z,100411.06
2019-04-06T00:15:13.418Z,100413.55
2019-04-06T00:17:43.219Z,100411.05
2019-04-06T00:20:13.373Z,100413.80
2019-04-06T00:22:43.128Z,100406.33
2019-04-06T00:25:13.094Z,100415.16
2019-04-06T00:27:42.908Z,100410.48
2019-04-06T00:30:13.450Z,100411.81
2019-04-06T00:33:08.410Z,100412.62
2019-04-06T00:35:38.232Z,100409.31
2019-04-06T00:38:08.097Z,100411.52
2019-04-06T00:40:37.950Z,100416.20
2019-04-06T00:43:07.839Z,100407.05
2019-04-06T00:45:37.750Z,100408.15
2019-04-06T00:48:07.544Z,100405.04
2019-04-06T00:50:37.537Z,100405.84
2019-04-06T00:53:07.296Z,100406.91
2019-04-06T00:55:37.209Z,100412.46
2019-04-06T00:58:07.191Z,100407.47
2019-04-06T01:00:36.993Z,100413.59
2019-04-06T01:03:06.946Z,100409.19
2019-04-06T01:05:36.807Z,100415.56
2019-04-06T01:08:06.722Z,100416.37
2019-04-06T01:10:36.597Z,100418.27
2019-04-06T01:13:06.454Z,100412.46
2019-04-06T01:15:36.383Z,100409.42
2019-04-06T01:21:23.430Z,100408.03
2019-04-06T01:23:53.336Z,100407.39
2019-04-06T01:26:24.238Z,100402.12
2019-04-06T01:28:54.026Z,100406.98
2019-04-06T01:31:23.877Z,100398.61
2019-04-06T01:33:53.826Z,100405.97
2019-04-06T01:36:23.702Z,100410.60
2019-04-06T01:38:53.623Z,100414.66
2019-04-06T01:41:23.410Z,100412.51
2019-04-06T01:43:53.234Z,100409.82
2019-04-06T01:46:23.113Z,100412.58
2019-04-06T01:48:52.932Z,100415.91
2019-04-06T01:51:22.821Z,100413.15
2019-04-06T01:53:52.678Z,100419.80
2019-04-06T01:56:22.636Z,100406.89
2019-04-06T01:58:52.501Z,100411.27
2019-04-06T02:01:26.315Z,100412.41
2019-04-06T02:03:56.198Z,100421.25
2019-04-06T02:06:26.123Z,100414.59
2019-04-06T02:08:55.946Z,100402.75
2019-04-06T02:11:25.877Z,100403.53
2019-04-06T02:13:55.665Z,100398.86
2019-04-06T02:16:25.616Z,100396.66
2019-04-06T02:18:55.457Z,100390.58
2019-04-06T02:21:25.256Z,100388.95
2019-04-06T02:23:55.172Z,100392.27
2019-04-06T02:26:30.895Z,100393.37
2019-04-06T02:28:56.683Z,100395.28
2019-04-06T02:31:38.764Z,100396.06
2019-04-06T02:34:27.154Z,100386.90
2019-04-06T02:37:08.204Z,100392.34
2019-04-06T02:39:45.419Z,100396.41
2019-04-06T02:42:21.807Z,100394.13
2019-04-06T02:44:52.908Z,100393.89
2019-04-06T02:47:22.817Z,100396.52
2019-04-06T02:49:52.696Z,100406.14
2019-04-06T02:52:23.209Z,100403.83
2019-04-06T02:54:53.052Z,100405.64
2019-04-06T02:57:22.870Z,100402.89
2019-04-06T02:59:52.706Z,100398.19
2019-04-06T03:02:22.631Z,100406.79
2019-04-06T03:04:52.502Z,100399.37
2019-04-06T03:07:22.415Z,100392.47
2019-04-06T03:09:53.601Z,100397.38
2019-04-06T03:12:23.453Z,100401.71
2019-04-06T03:14:53.191Z,100388.73
2019-04-06T03:17:22.967Z,100379.00
2019-04-06T03:19:52.746Z,100390.79
2019-04-06T03:22:22.476Z,100391.54
2019-04-06T03:24:52.258Z,100393.39
2019-04-06T03:27:22.162Z,100393.34
2019-04-06T03:29:58.359Z,100399.37
2019-04-06T03:32:23.507Z,100386.22
2019-04-06T03:34:53.297Z,100389.65
2019-04-06T03:37:23.060Z,100400.43
2019-04-06T03:39:52.818Z,100403.95
2019-04-06T03:42:22.716Z,100410.17
2019-04-06T03:44:52.511Z,100410.17
2019-04-06T03:47:22.232Z,100396.95
2019-04-06T03:49:52.101Z,100392.53
2019-04-06T03:52:21.998Z,100388.17
2019-04-06T03:54:51.857Z,100379.95
2019-04-06T03:57:21.660Z,100363.13
2019-04-06T03:59:51.558Z,100358.89
2019-04-06T04:02:21.288Z,100350.78
2019-04-06T04:04:51.001Z,100353.76
2019-04-06T04:07:21.824Z,100344.45
2019-04-06T04:09:51.700Z,100345.92
2019-04-06T04:12:21.533Z,100353.77
2019-04-06T04:14:51.699Z,100368.77
2019-04-06T04:17:21.526Z,100372.34
2019-04-06T04:19:51.408Z,100378.89
2019-04-06T04:22:21.439Z,100362.59
2019-04-06T04:24:51.481Z,100368.92
2019-04-06T04:27:30.477Z,100376.60
2019-04-06T04:30:00.321Z,100370.30
2019-04-06T04:32:30.069Z,100367.55
2019-04-06T04:34:59.739Z,100371.48
2019-04-06T04:37:29.504Z,100381.70
2019-04-06T04:39:59.253Z,100407.20
2019-04-06T04:42:29.038Z,100400.56
2019-04-06T04:44:58.844Z,100399.17
2019-04-06T04:47:28.948Z,100412.52
2019-04-06T04:49:58.731Z,100421.56
2019-04-06T04:52:28.612Z,100422.64
2019-04-06T04:54:58.399Z,100415.77
2019-04-06T04:57:39.266Z,100401.45
2019-04-06T05:00:01.426Z,100409.89
2019-04-06T05:02:31.446Z,100414.75
2019-04-06T05:05:01.280Z,100406.87
2019-04-06T05:07:31.497Z,100412.03
2019-04-06T05:10:01.597Z,100410.80
2019-04-06T05:12:31.617Z,100406.16
2019-04-06T05:15:04.791Z,100400.14
2019-04-06T05:17:34.766Z,100388.72
2019-04-06T05:20:05.902Z,100390.85
2019-04-06T05:22:35.847Z,100389.50
2019-04-06T05:25:06.143Z,100375.19
2019-04-06T05:27:36.064Z,100383.86
2019-04-06T05:30:07.220Z,100378.95
2019-04-06T05:32:37.142Z,100377.58
2019-04-06T05:35:07.381Z,100384.61
2019-04-06T05:37:37.256Z,100389.59
2019-04-06T05:40:07.575Z,100381.42
2019-04-06T05:42:37.303Z,100386.30
2019-04-06T05:45:07.544Z,100383.09
2019-04-06T05:47:37.289Z,100383.80
2019-04-06T05:50:07.574Z,100394.19
2019-04-06T05:52:37.305Z,100410.90
2019-04-06T05:55:07.395Z,100427.73
2019-04-06T05:57:38.032Z,100407.91
2019-04-06T06:00:10.684Z,100399.54
2019-04-06T06:02:41.839Z,100417.45
2019-04-06T06:05:12.376Z,100413.38
2019-04-06T06:07:44.688Z,100399.95
2019-04-06T06:10:15.055Z,100399.72
2019-04-06T06:12:44.860Z,100409.16
2019-04-06T06:15:15.091Z,100402.25
2019-04-06T06:17:44.898Z,100401.72
2019-04-06T06:20:15.079Z,100402.05
2019-04-06T06:22:44.898Z,100404.27
2019-04-06T06:25:15.121Z,100409.25
2019-04-06T06:27:44.932Z,100420.31
2019-04-06T06:30:15.428Z,100421.97
2019-04-06T06:32:45.077Z,100415.44
2019-04-06T06:35:15.066Z,100419.67
2019-04-06T06:37:44.955Z,100436.91
2019-04-06T06:40:16.282Z,100435.55
2019-04-06T06:42:46.198Z,100434.95
2019-04-06T06:45:16.305Z,100443.30
2019-04-06T06:47:46.128Z,100434.13
2019-04-06T06:50:16.059Z,100429.70
2019-04-06T06:52:45.921Z,100441.88
2019-04-06T06:55:16.024Z,100448.19
2019-04-06T06:57:45.778Z,100444.52
2019-04-06T07:00:15.690Z,100429.11
2019-04-06T07:02:45.504Z,100440.59
2019-04-06T07:05:15.500Z,100442.30
2019-04-06T07:07:45.452Z,100442.47
2019-04-06T07:10:16.118Z,100458.11
2019-04-06T07:12:46.019Z,100457.03
2019-04-06T07:15:17.149Z,100460.62
2019-04-06T07:17:46.971Z,100459.19
2019-04-06T07:20:17.166Z,100452.59
2019-04-06T07:22:47.071Z,100452.72
2019-04-06T07:25:16.922Z,100442.41
2019-04-06T07:27:46.881Z,100444.78
2019-04-06T07:30:18.390Z,100448.42
2019-04-06T07:32:55.239Z,100444.29
2019-04-06T07:35:23.053Z,100438.71
2019-04-06T07:37:53.083Z,100429.55
2019-04-06T07:40:23.056Z,100435.32
2019-04-06T07:42:52.749Z,100431.09
2019-04-06T07:45:23.209Z,100433.41
2019-04-06T07:47:53.176Z,100422.30
2019-04-06T07:50:23.370Z,100434.21
2019-04-06T07:52:53.196Z,100442.50
2019-04-06T07:55:23.224Z,100433.87
2019-04-06T07:57:53.203Z,100437.00
2019-04-06T08:00:23.164Z,100443.02
2019-04-06T08:02:53.280Z,100442.38
2019-04-06T08:05:23.274Z,100438.98
2019-04-06T08:07:53.031Z,100431.53
2019-04-06T08:10:23.966Z,100430.26
2019-04-06T08:12:53.952Z,100422.40
2019-04-06T08:15:23.989Z,100427.20
2019-04-06T08:17:57.007Z,100425.00
2019-04-06T08:20:27.189Z,100422.70
2019-04-06T08:22:57.052Z,100421.16
2019-04-06T08:25:27.951Z,100412.27
2019-04-06T08:27:58.693Z,100414.22
2019-04-06T08:30:28.792Z,100412.77
2019-04-06T08:32:58.698Z,100406.23
2019-04-06T08:35:28.553Z,100406.90
2019-04-06T08:37:58.574Z,100414.84
2019-04-06T08:40:28.436Z,100411.05
2019-04-06T08:42:58.227Z,100404.98
2019-04-06T08:45:28.211Z,100404.98
2019-04-06T08:47:58.761Z,100407.37
2019-04-06T08:50:28.696Z,100406.19
2019-04-06T08:52:58.659Z,100409.32
2019-04-06T08:55:28.616Z,100404.59
2019-04-06T08:57:58.546Z,100406.83
2019-04-06T09:00:28.409Z,100406.84
2019-04-06T09:02:58.221Z,100403.16
2019-04-06T09:05:28.035Z,100404.02
2019-04-06T09:07:57.906Z,100395.48
2019-04-06T09:10:27.981Z,100398.92
2019-04-06T09:13:03.307Z,100396.55
2019-04-06T09:15:33.250Z,100393.55
2019-04-06T09:18:03.171Z,100389.56
2019-04-06T09:20:34.018Z,100386.81
2019-04-06T09:23:03.849Z,100383.25
2019-04-06T09:25:33.915Z,100375.85
2019-04-06T09:28:03.715Z,100377.92
2019-04-06T09:30:33.586Z,100372.34
2019-04-06T09:33:03.745Z,100359.09
2019-04-06T09:35:33.689Z,100358.52
2019-04-06T09:38:04.134Z,100361.83
2019-04-06T09:40:34.308Z,100352.48
2019-04-06T09:43:04.400Z,100355.96
2019-04-06T09:45:42.676Z,100360.30
2019-04-06T09:48:22.020Z,100353.56
2019-04-06T09:51:08.212Z,100356.78
2019-04-06T09:54:06.222Z,100351.02
2019-04-06T09:56:42.812Z,100354.92
2019-04-06T09:59:35.893Z,100344.44
2019-04-06T10:02:14.115Z,100339.75
2019-04-06T10:05:12.104Z,100340.69
2019-04-06T10:07:54.412Z,100328.00
2019-04-06T10:10:39.346Z,100330.39
2019-04-06T10:13:30.900Z,100331.63
2019-04-06T10:16:18.151Z,100324.72
2019-04-06T10:19:04.668Z,100329.02
2019-04-06T10:21:56.312Z,100330.66
2019-04-06T10:24:31.721Z,100327.59
2019-04-06T10:27:19.679Z,100323.91
2019-04-06T10:30:26.876Z,100327.40
2019-04-06T10:33:05.510Z,100323.94
2019-04-06T10:35:45.868Z,100316.55
2019-04-06T10:38:37.307Z,100329.77
2019-04-06T10:41:19.539Z,100319.59
2019-04-06T10:44:09.622Z,100321.84
2019-04-06T10:46:58.668Z,100320.95
2019-04-06T10:49:40.692Z,100316.66
2019-04-06T10:52:25.900Z,100313.80
2019-04-06T10:55:14.790Z,100309.17
2019-04-06T10:58:03.616Z,100314.30
2019-04-06T11:00:45.607Z,100310.27
2019-04-06T11:03:27.188Z,100310.66
2019-04-06T11:06:16.144Z,100318.09
2019-04-06T11:09:05.358Z,100307.05
2019-04-06T11:12:06.578Z,100302.94
2019-04-06T11:14:45.128Z,100299.19
2019-04-06T11:17:51.866Z,100297.02
2019-04-06T11:20:38.897Z,100295.81
2019-04-06T11:23:27.751Z,100284.83
2019-04-06T11:26:19.801Z,100284.59
2019-04-06T11:29:23.539Z,100287.35
2019-04-06T11:32:12.262Z,100283.31
2019-04-06T11:35:10.489Z,100280.17
2019-04-06T11:38:02.083Z,100288.02
2019-04-06T11:40:38.598Z,100283.14
2019-04-06T11:43:17.836Z,100278.84
2019-04-06T11:45:55.770Z,100276.43
2019-04-06T11:48:41.728Z,100277.27
2019-04-06T11:51:30.636Z,100280.30
2019-04-06T11:54:19.382Z,100281.52
2019-04-06T11:57:08.750Z,100278.68
2019-04-06T11:59:55.855Z,100269.28
2019-04-06T12:02:47.185Z,100275.80
2019-04-06T12:05:34.398Z,100274.78
2019-04-06T12:08:26.299Z,100274.76
2019-04-06T12:11:07.197Z,100263.23
2019-04-06T12:13:50.909Z,100265.67
2019-04-06T12:16:54.549Z,100261.72
2019-04-06T12:19:52.285Z,100257.25
2019-04-06T12:22:41.377Z,100258.86
2019-04-06T12:25:19.161Z,100262.95
2019-04-06T12:28:14.189Z,100251.52
2019-04-06T12:31:08.773Z,100254.07
2019-04-06T12:34:17.007Z,100247.37
2019-04-06T12:37:08.629Z,100251.73
2019-04-06T12:39:53.421Z,100247.23
2019-04-06T12:42:35.493Z,100243.78
2019-04-06T12:45:41.634Z,100239.30
2019-04-06T12:48:31.155Z,100234.42
2019-04-06T12:51:19.467Z,100228.69
2019-04-06T12:53:58.013Z,100229.52
2019-04-06T12:56:46.305Z,100227.87
2019-04-06T12:59:29.401Z,100230.13
2019-04-06T13:02:11.395Z,100223.89
2019-04-06T13:05:12.478Z,100219.75
2019-04-06T13:07:58.348Z,100211.64
2019-04-06T13:10:43.087Z,100214.70
2019-04-06T13:13:31.908Z,100216.46
2019-04-06T13:16:29.284Z,100215.64
2019-04-06T13:19:16.533Z,100209.95
2019-04-06T13:22:03.624Z,100216.81
2019-04-06T13:24:52.661Z,100206.56
2019-04-06T13:27:37.683Z,100215.81
2019-04-06T13:30:20.899Z,100207.20
2019-04-06T13:32:58.553Z,100212.61
2019-04-06T13:35:40.937Z,100204.72
2019-04-06T13:38:29.903Z,100208.39
2019-04-06T13:41:13.424Z,100201.44
2019-04-06T13:44:20.004Z,100208.98
2019-04-06T13:47:04.539Z,100205.20
2019-04-06T13:49:52.195Z,100202.03
2019-04-06T13:52:40.890Z,100201.62
2019-04-06T13:55:28.192Z,100199.98
2019-04-06T13:58:19.800Z,100195.30
2019-04-06T14:01:17.564Z,100194.20
2019-04-06T14:04:04.868Z,100189.72
2019-04-06T14:06:53.628Z,100200.42
2019-04-06T14:09:54.527Z,100189.20
2019-04-06T14:12:46.317Z,100183.09
2019-04-06T14:15:33.410Z,100188.34
2019-04-06T14:18:18.288Z,100193.09
2019-04-06T14:21:06.971Z,100188.76
2019-04-06T14:23:52.858Z,100183.81
2019-04-06T14:26:49.558Z,100188.95
2019-04-06T14:29:29.216Z,100182.03
2019-04-06T14:32:09.187Z,100186.33
2019-04-06T14:34:58.593Z,100178.44
2019-04-06T14:37:43.700Z,100179.81
2019-04-06T14:40:24.850Z,100174.03
2019-04-06T14:43:04.562Z,100173.19
2019-04-06T14:45:49.863Z,100178.44
2019-04-06T14:48:51.162Z,100182.30
2019-04-06T14:51:29.952Z,100173.61
2019-04-06T14:54:20.374Z,100167.17
2019-04-06T14:56:56.018Z,100172.63
2019-04-06T14:59:47.505Z,100173.61
2019-04-06T15:02:24.780Z,100169.21
2019-04-06T15:05:16.572Z,100170.45
2019-04-06T15:07:53.532Z,100165.98
2019-04-06T15:10:40.918Z,100171.06
2019-04-06T15:13:30.885Z,100165.94
2019-04-06T15:16:07.101Z,100166.27
2019-04-06T15:19:07.527Z,100160.41
2019-04-06T15:21:44.512Z,100161.03
2019-04-06T15:24:20.421Z,100163.10
2019-04-06T15:27:06.948Z,100163.97
2019-04-06T15:32:46.444Z,100158.05
2019-04-06T15:35:33.587Z,100164.97
2019-04-06T15:38:29.223Z,100163.09
2019-04-06T15:41:06.776Z,100163.88
2019-04-06T15:43:58.218Z,100168.52
2019-04-06T15:46:36.676Z,100165.34
2019-04-06T15:49:17.136Z,100166.84
2019-04-06T15:52:10.698Z,100162.33
2019-04-06T15:54:50.888Z,100159.79
2019-04-06T15:57:30.130Z,100160.06
2019-04-06T16:00:17.609Z,100156.52
2019-04-06T16:02:55.070Z,100158.33
2019-04-06T16:05:32.319Z,100158.91
2019-04-06T16:08:10.088Z,100154.14
2019-04-06T16:10:58.855Z,100154.58
2019-04-06T16:13:38.146Z,100156.22
2019-04-06T16:16:12.631Z,100157.86
2019-04-06T16:19:01.463Z,100153.97
2019-04-06T16:21:53.211Z,100152.11
2019-04-06T16:24:30.205Z,100155.25
2019-04-06T16:27:18.906Z,100165.69
2019-04-06T16:29:55.941Z,100163.55
2019-04-06T16:32:50.780Z,100163.95
2019-04-06T16:35:44.427Z,100168.17
2019-04-06T16:38:33.222Z,100164.30
2019-04-06T16:41:13.428Z,100169.97
2019-04-06T16:44:05.976Z,100171.36
2019-04-06T16:46:53.460Z,100168.95
2019-04-06T16:49:44.624Z,100169.69
2019-04-06T16:52:42.864Z,100175.47
2019-04-06T16:55:24.909Z,100171.50
2019-04-06T16:58:19.990Z,100175.63
2019-04-06T17:01:26.814Z,100176.11
2019-04-06T17:04:30.464Z,100179.27
2019-04-06T17:07:18.375Z,100176.23
2019-04-06T17:09:55.297Z,100183.45
2019-04-06T17:12:38.374Z,100183.45
2019-04-06T17:15:17.223Z,100184.90
2019-04-06T17:18:20.950Z,100183.06
2019-04-06T17:21:14.083Z,100184.36
2019-04-06T17:24:05.475Z,100181.60
2019-04-06T17:26:59.266Z,100177.42
2019-04-06T17:29:50.847Z,100186.41
2019-04-06T17:32:37.791Z,100190.53
2019-04-06T17:35:34.901Z,100195.27
2019-04-06T17:38:26.512Z,100196.23
2019-04-06T17:41:24.372Z,100199.53
2019-04-06T17:44:22.223Z,100203.41
2019-04-06T17:47:13.408Z,100203.65
2019-04-06T17:50:05.293Z,100219.94
2019-04-06T17:52:54.374Z,100217.27
2019-04-06T17:55:42.481Z,100222.67
2019-04-06T17:58:18.994Z,100224.66
2019-04-06T18:01:10.929Z,100225.27
2019-04-06T18:03:59.310Z,100223.59
2019-04-06T18:06:43.808Z,100229.69
2019-04-06T18:09:23.420Z,100232.27
2019-04-06T18:11:58.387Z,100227.58
2019-04-06T18:14:28.164Z,100230.75
2019-04-06T18:16:58.290Z,100232.86
2019-04-06T18:19:28.142Z,100234.13
2019-04-06T18:21:58.391Z,100240.22
2019-04-06T18:24:28.096Z,100247.48
2019-04-06T18:26:58.341Z,100251.80
2019-04-06T18:29:28.395Z,100245.60
2019-04-06T18:32:10.178Z,100256.48
2019-04-06T18:34:40.000Z,100252.80
2019-04-06T18:37:35.759Z,100248.09
2019-04-06T18:40:17.172Z,100256.98
2019-04-06T18:42:47.037Z,100260.70
2019-04-06T18:45:16.965Z,100258.58
2019-04-06T18:47:47.300Z,100263.70
2019-04-06T18:50:17.688Z,100263.46
2019-04-06T18:52:47.737Z,100266.38
2019-04-06T18:55:17.773Z,100265.27
2019-04-06T18:57:47.486Z,100267.33
2019-04-06T19:00:17.492Z,100264.48
2019-04-06T19:02:47.932Z,100266.66
2019-04-06T19:05:18.401Z,100267.47
2019-04-06T19:07:48.407Z,100268.39
2019-04-06T19:10:18.662Z,100266.59
2019-04-06T19:12:48.666Z,100266.72
2019-04-06T19:15:18.574Z,100266.32
2019-04-06T19:17:48.454Z,100266.84
2019-04-06T19:20:19.404Z,100260.91
2019-04-06T19:22:49.316Z,100265.77
2019-04-06T19:25:19.802Z,100267.13
2019-04-06T19:27:49.760Z,100269.02
2019-04-06T19:30:20.556Z,100264.44
2019-04-06T19:32:50.595Z,100263.78
2019-04-06T19:35:20.944Z,100267.52
2019-04-06T19:37:50.753Z,100263.74
2019-04-06T19:40:20.721Z,100265.34
2019-04-06T19:42:50.459Z,100272.06
2019-04-06T19:45:20.197Z,100276.22
2019-04-06T19:47:50.082Z,100275.20
2019-04-06T19:50:20.298Z,100274.30
2019-04-06T19:52:50.680Z,100278.02
2019-04-06T19:55:20.524Z,100274.37
2019-04-06T19:57:50.649Z,100277.13
2019-04-06T20:00:21.126Z,100276.74
2019-04-06T20:02:50.900Z,100273.20
2019-04-06T20:05:20.708Z,100282.44
2019-04-06T20:07:50.324Z,100274.69
2019-04-06T20:10:20.179Z,100278.75
2019-04-06T20:12:50.324Z,100274.48
2019-04-06T20:15:20.130Z,100271.02
2019-04-06T20:17:49.918Z,100279.05
2019-04-06T20:20:19.674Z,100266.15
2019-04-06T20:22:49.431Z,100270.11
2019-04-06T20:25:19.293Z,100272.15
2019-04-06T20:27:50.093Z,100272.50
2019-04-06T20:30:20.670Z,100269.03
2019-04-06T20:32:50.316Z,100260.30
2019-04-06T20:35:20.228Z,100266.68
2019-04-06T20:37:50.125Z,100261.14
2019-04-06T20:40:20.339Z,100263.56
2019-04-06T20:42:50.083Z,100258.44
2019-04-06T20:45:20.420Z,100264.11
2019-04-06T20:47:52.274Z,100265.52
2019-04-06T20:50:22.423Z,100265.13
2019-04-06T20:52:52.541Z,100260.92
2019-04-06T20:55:22.396Z,100264.36
2019-04-06T20:57:52.660Z,100266.42
2019-04-06T21:00:23.139Z,100260.58
2019-04-06T21:02:53.665Z,100259.42
2019-04-06T21:05:23.444Z,100261.83
2019-04-06T21:07:53.135Z,100263.55
2019-04-06T21:10:22.832Z,100265.77
2019-04-06T21:12:52.684Z,100258.87
2019-04-06T21:15:22.702Z,100265.38
2019-04-06T21:17:53.319Z,100267.09
2019-04-06T21:20:23.329Z,100267.09
2019-04-06T21:22:53.044Z,100275.92
2019-04-06T21:25:23.359Z,100266.77
2019-04-06T21:27:53.483Z,100267.92
2019-04-06T21:30:23.549Z,100268.52
2019-04-06T21:32:53.522Z,100270.23
2019-04-06T21:35:23.607Z,100268.09
2019-04-06T21:37:54.253Z,100268.99
2019-04-06T21:40:24.129Z,100270.39
2019-04-06T21:42:54.060Z,100272.70
2019-04-06T21:45:23.882Z,100267.26
2019-04-06T21:47:54.123Z,100270.28
2019-04-06T21:50:24.067Z,100265.74
2019-04-06T21:52:54.213Z,100269.55
2019-04-06T21:55:24.072Z,100264.59
2019-04-06T21:57:54.322Z,100269.70
2019-04-06T22:00:43.638Z,100267.27
2019-04-06T22:03:14.039Z,100264.09
2019-04-06T22:05:44.694Z,100265.99
2019-04-06T22:08:15.391Z,100267.61
2019-04-06T22:10:45.817Z,100264.55
2019-04-06T22:13:15.831Z,100269.20
2019-04-06T22:15:47.308Z,100266.72
2019-04-06T22:18:17.121Z,100267.76
2019-04-06T22:20:46.778Z,100275.23
2019-04-06T22:23:16.445Z,100276.19
2019-04-06T22:25:46.133Z,100273.98
2019-04-06T22:28:16.463Z,100271.74
2019-04-06T22:30:47.239Z,100281.23
2019-04-06T22:33:17.417Z,100275.44
2019-04-06T22:35:47.494Z,100274.37
2019-04-06T22:38:17.379Z,100268.03
2019-04-06T22:40:47.577Z,100267.27
2019-04-06T22:43:17.443Z,100264.84
2019-04-06T22:45:47.111Z,100266.88
2019-04-06T22:48:17.406Z,100271.47
2019-04-06T22:50:47.469Z,100266.02
2019-04-06T22:53:17.258Z,100269.79
2019-04-06T22:55:46.941Z,100267.18
2019-04-06T22:58:16.644Z,100276.30
2019-04-06T23:00:50.470Z,100274.78
2019-04-06T23:03:39.221Z,100275.21
2019-04-06T23:06:12.116Z,100279.20
2019-04-06T23:08:42.276Z,100279.67
2019-04-06T23:11:12.763Z,100278.16
2019-04-06T23:13:42.624Z,100274.48
2019-04-06T23:16:12.648Z,100277.14
2019-04-06T23:18:42.791Z,100279.80
2019-04-06T23:21:12.555Z,100277.77
2019-04-06T23:23:42.205Z,100278.40
2019-04-06T23:26:11.947Z,100280.09
2019-04-06T23:28:41.608Z,100286.27
2019-04-06T23:31:11.847Z,100282.38
2019-04-06T23:33:41.635Z,100280.84
2019-04-06T23:36:11.914Z,100285.88
2019-04-06T23:38:41.610Z,100284.98
2019-04-06T23:41:11.686Z,100283.38
2019-04-06T23:43:41.530Z,100280.08
2019-04-06T23:46:11.530Z,100284.34
2019-04-06T23:48:41.780Z,100286.55
2019-04-06T23:51:11.559Z,100285.78
2019-04-06T23:53:41.236Z,100282.22
2019-04-06T23:56:10.933Z,100287.59
2019-04-06T23:58:40.948Z,100287.41
